Lebanon, Wisconsin
Current Conditions -  °F | °C
As of 5:55 AM on Friday 28 Nov 2014 (Local Time) from KRYV Reporting Station
Light Snow Light Snow  
Wind Chill:   Ceiling: 5500
Heat Index: 14°   Visibility: 10mi
Dew Point: 10°   Wind: 6mph
Humidity: 87%   Direction: 160°SSE
Pressure: 30.25"   Gusts: NA
Location:  43.26°N, 88.63°W
Report Text: KRYV 281155Z AUTO 16005KT 10SM -SN SCT044 BKN055 OVC070 M10/M12 A3025 RMK AO2 T11021120 11102 21128
Loading
Personal Weather Stations






























Interactive Weather Map New forecast layout! Learn more

10-Day Weather Forecast

Advertisements
Track Severe Weather on mobile